sensor_id;sensor_type;location;lat;lon;timestamp;P1;durP1;ratioP1;P2;durP2;ratioP2
13981;SDS011;7065;50.880;5.502;2023-09-18T00:01:50;10.43;;;9.18;;
13981;SDS011;7065;50.880;5.502;2023-09-18T00:04:16;12.43;;;8.68;;
13981;SDS011;7065;50.880;5.502;2023-09-18T00:06:42;9.43;;;8.45;;
13981;SDS011;7065;50.880;5.502;2023-09-18T00:09:08;9.40;;;8.48;;
13981;SDS011;7065;50.880;5.502;2023-09-18T00:11:36;11.55;;;8.75;;
13981;SDS011;7065;50.880;5.502;2023-09-18T00:14:07;10.70;;;9.60;;
13981;SDS011;7065;50.880;5.502;2023-09-18T00:16:33;10.32;;;8.75;;
13981;SDS011;7065;50.880;5.502;2023-09-18T00:18:59;9.27;;;8.30;;
13981;SDS011;7065;50.880;5.502;2023-09-18T00:21:24;9.43;;;8.50;;
13981;SDS011;7065;50.880;5.502;2023-09-18T00:23:51;8.98;;;8.15;;
13981;SDS011;7065;50.880;5.502;2023-09-18T00:26:17;9.88;;;8.18;;
13981;SDS011;7065;50.880;5.502;2023-09-18T00:28:42;9.55;;;8.43;;
13981;SDS011;7065;50.880;5.502;2023-09-18T00:31:09;9.55;;;8.27;;
13981;SDS011;7065;50.880;5.502;2023-09-18T00:33:35;8.75;;;7.95;;
13981;SDS011;7065;50.880;5.502;2023-09-18T00:36:01;9.00;;;8.13;;
13981;SDS011;7065;50.880;5.502;2023-09-18T00:38:27;9.10;;;8.20;;
13981;SDS011;7065;50.880;5.502;2023-09-18T00:40:53;9.82;;;8.52;;
13981;SDS011;7065;50.880;5.502;2023-09-18T00:43:18;8.95;;;8.05;;
13981;SDS011;7065;50.880;5.502;2023-09-18T00:45:46;8.57;;;7.70;;
13981;SDS011;7065;50.880;5.502;2023-09-18T00:48:16;10.18;;;9.18;;
13981;SDS011;7065;50.880;5.502;2023-09-18T00:50:46;8.50;;;7.80;;
13981;SDS011;7065;50.880;5.502;2023-09-18T00:53:14;11.32;;;8.23;;
13981;SDS011;7065;50.880;5.502;2023-09-18T00:55:44;9.52;;;8.63;;
13981;SDS011;7065;50.880;5.502;2023-09-18T00:58:11;9.82;;;8.98;;
13981;SDS011;7065;50.880;5.502;2023-09-18T01:00:37;10.75;;;9.23;;
13981;SDS011;7065;50.880;5.502;2023-09-18T01:03:05;9.60;;;8.70;;
13981;SDS011;7065;50.880;5.502;2023-09-18T01:05:34;11.77;;;9.90;;
13981;SDS011;7065;50.880;5.502;2023-09-18T01:08:01;12.30;;;8.98;;
13981;SDS011;7065;50.880;5.502;2023-09-18T01:10:28;10.57;;;9.57;;
13981;SDS011;7065;50.880;5.502;2023-09-18T01:13:03;10.73;;;8.55;;
13981;SDS011;7065;50.880;5.502;2023-09-18T01:15:39;10.45;;;9.25;;
13981;SDS011;7065;50.880;5.502;2023-09-18T01:18:17;11.25;;;9.88;;
13981;SDS011;7065;50.880;5.502;2023-09-18T01:20:43;11.80;;;9.93;;
13981;SDS011;7065;50.880;5.502;2023-09-18T01:23:09;10.38;;;9.38;;
13981;SDS011;7065;50.880;5.502;2023-09-18T01:25:36;11.10;;;9.60;;
13981;SDS011;7065;50.880;5.502;2023-09-18T01:28:02;9.98;;;8.93;;
13981;SDS011;7065;50.880;5.502;2023-09-18T01:30:28;10.95;;;9.85;;
13981;SDS011;7065;50.880;5.502;2023-09-18T01:32:54;12.07;;;9.05;;
13981;SDS011;7065;50.880;5.502;2023-09-18T01:35:23;9.65;;;8.65;;
13981;SDS011;7065;50.880;5.502;2023-09-18T01:37:55;10.35;;;9.27;;
13981;SDS011;7065;50.880;5.502;2023-09-18T01:40:22;11.50;;;8.93;;
13981;SDS011;7065;50.880;5.502;2023-09-18T01:42:49;10.27;;;9.25;;
13981;SDS011;7065;50.880;5.502;2023-09-18T01:45:15;10.15;;;9.15;;
13981;SDS011;7065;50.880;5.502;2023-09-18T01:47:40;11.65;;;9.60;;
13981;SDS011;7065;50.880;5.502;2023-09-18T01:50:07;11.82;;;8.70;;
13981;SDS011;7065;50.880;5.502;2023-09-18T01:52:33;11.60;;;9.68;;
13981;SDS011;7065;50.880;5.502;2023-09-18T01:55:01;11.85;;;9.45;;
13981;SDS011;7065;50.880;5.502;2023-09-18T01:57:31;12.15;;;9.30;;
13981;SDS011;7065;50.880;5.502;2023-09-18T01:59:57;15.85;;;9.48;;
13981;SDS011;7065;50.880;5.502;2023-09-18T02:02:22;15.20;;;8.82;;
13981;SDS011;7065;50.880;5.502;2023-09-18T02:04:49;13.73;;;7.88;;
13981;SDS011;7065;50.880;5.502;2023-09-18T02:07:14;10.43;;;7.82;;
13981;SDS011;7065;50.880;5.502;2023-09-18T02:09:40;14.55;;;7.97;;
13981;SDS011;7065;50.880;5.502;2023-09-18T02:12:06;16.10;;;8.15;;
13981;SDS011;7065;50.880;5.502;2023-09-18T02:14:32;7.00;;;6.30;;
13981;SDS011;7065;50.880;5.502;2023-09-18T02:16:58;10.63;;;7.18;;
13981;SDS011;7065;50.880;5.502;2023-09-18T02:19:24;9.15;;;7.25;;
13981;SDS011;7065;50.880;5.502;2023-09-18T02:21:51;12.25;;;8.15;;
13981;SDS011;7065;50.880;5.502;2023-09-18T02:24:17;14.68;;;8.07;;
13981;SDS011;7065;50.880;5.502;2023-09-18T02:26:42;14.27;;;8.05;;
13981;SDS011;7065;50.880;5.502;2023-09-18T02:29:10;12.05;;;8.40;;
13981;SDS011;7065;50.880;5.502;2023-09-18T02:31:37;14.60;;;8.25;;
13981;SDS011;7065;50.880;5.502;2023-09-18T02:34:03;13.50;;;8.07;;
13981;SDS011;7065;50.880;5.502;2023-09-18T02:36:29;13.90;;;8.45;;
13981;SDS011;7065;50.880;5.502;2023-09-18T02:38:55;9.95;;;8.02;;
13981;SDS011;7065;50.880;5.502;2023-09-18T02:41:21;13.60;;;8.27;;
13981;SDS011;7065;50.880;5.502;2023-09-18T02:43:47;13.98;;;9.15;;
13981;SDS011;7065;50.880;5.502;2023-09-18T02:46:13;11.35;;;8.00;;
13981;SDS011;7065;50.880;5.502;2023-09-18T02:48:38;17.35;;;9.00;;
13981;SDS011;7065;50.880;5.502;2023-09-18T02:51:04;10.23;;;7.20;;
13981;SDS011;7065;50.880;5.502;2023-09-18T02:53:30;11.07;;;6.68;;
13981;SDS011;7065;50.880;5.502;2023-09-18T02:55:57;7.80;;;6.45;;
13981;SDS011;7065;50.880;5.502;2023-09-18T02:58:23;8.00;;;5.72;;
13981;SDS011;7065;50.880;5.502;2023-09-18T03:00:51;10.13;;;5.35;;
13981;SDS011;7065;50.880;5.502;2023-09-18T03:03:18;10.48;;;4.95;;
13981;SDS011;7065;50.880;5.502;2023-09-18T03:05:44;9.20;;;4.88;;
13981;SDS011;7065;50.880;5.502;2023-09-18T03:08:13;5.57;;;4.53;;
13981;SDS011;7065;50.880;5.502;2023-09-18T03:10:41;7.30;;;4.07;;
13981;SDS011;7065;50.880;5.502;2023-09-18T03:13:09;6.55;;;4.35;;
13981;SDS011;7065;50.880;5.502;2023-09-18T03:15:36;6.35;;;4.53;;
13981;SDS011;7065;50.880;5.502;2023-09-18T03:18:02;5.90;;;4.45;;
13981;SDS011;7065;50.880;5.502;2023-09-18T03:20:29;7.05;;;4.78;;
13981;SDS011;7065;50.880;5.502;2023-09-18T03:22:57;7.35;;;4.78;;
13981;SDS011;7065;50.880;5.502;2023-09-18T03:25:24;5.97;;;4.68;;
13981;SDS011;7065;50.880;5.502;2023-09-18T03:27:54;6.45;;;4.40;;
13981;SDS011;7065;50.880;5.502;2023-09-18T03:30:21;5.65;;;4.65;;
13981;SDS011;7065;50.880;5.502;2023-09-18T03:32:50;9.48;;;4.90;;
13981;SDS011;7065;50.880;5.502;2023-09-18T03:35:17;8.90;;;5.18;;
13981;SDS011;7065;50.880;5.502;2023-09-18T03:37:44;8.38;;;5.22;;
13981;SDS011;7065;50.880;5.502;2023-09-18T03:40:13;7.85;;;4.95;;
13981;SDS011;7065;50.880;5.502;2023-09-18T03:42:39;6.90;;;4.70;;
13981;SDS011;7065;50.880;5.502;2023-09-18T03:45:05;8.05;;;5.10;;
13981;SDS011;7065;50.880;5.502;2023-09-18T03:47:36;6.45;;;4.85;;
13981;SDS011;7065;50.880;5.502;2023-09-18T03:50:05;7.57;;;5.25;;
13981;SDS011;7065;50.880;5.502;2023-09-18T03:52:31;6.22;;;4.72;;
13981;SDS011;7065;50.880;5.502;2023-09-18T03:54:57;7.43;;;4.85;;
13981;SDS011;7065;50.880;5.502;2023-09-18T03:57:23;8.13;;;5.35;;
13981;SDS011;7065;50.880;5.502;2023-09-18T03:59:49;9.02;;;4.97;;
13981;SDS011;7065;50.880;5.502;2023-09-18T04:02:15;8.57;;;4.63;;
13981;SDS011;7065;50.880;5.502;2023-09-18T04:04:41;9.00;;;5.05;;
13981;SDS011;7065;50.880;5.502;2023-09-18T04:07:07;7.97;;;4.38;;
13981;SDS011;7065;50.880;5.502;2023-09-18T04:09:34;7.03;;;4.57;;
13981;SDS011;7065;50.880;5.502;2023-09-18T04:12:02;8.75;;;5.03;;
13981;SDS011;7065;50.880;5.502;2023-09-18T04:14:31;6.53;;;4.70;;
13981;SDS011;7065;50.880;5.502;2023-09-18T04:16:57;5.80;;;4.70;;
13981;SDS011;7065;50.880;5.502;2023-09-18T04:19:23;6.05;;;4.75;;
13981;SDS011;7065;50.880;5.502;2023-09-18T04:21:48;8.23;;;4.15;;
13981;SDS011;7065;50.880;5.502;2023-09-18T04:24:14;8.30;;;4.72;;
13981;SDS011;7065;50.880;5.502;2023-09-18T04:26:40;8.50;;;4.90;;
13981;SDS011;7065;50.880;5.502;2023-09-18T04:29:06;6.80;;;4.93;;
13981;SDS011;7065;50.880;5.502;2023-09-18T04:31:31;7.63;;;5.30;;
13981;SDS011;7065;50.880;5.502;2023-09-18T04:33:57;7.57;;;4.65;;
13981;SDS011;7065;50.880;5.502;2023-09-18T04:36:23;5.88;;;4.50;;
13981;SDS011;7065;50.880;5.502;2023-09-18T04:38:49;4.82;;;4.30;;
13981;SDS011;7065;50.880;5.502;2023-09-18T04:41:16;6.15;;;4.15;;
13981;SDS011;7065;50.880;5.502;2023-09-18T04:43:42;8.90;;;4.50;;
13981;SDS011;7065;50.880;5.502;2023-09-18T04:46:08;5.53;;;4.07;;
13981;SDS011;7065;50.880;5.502;2023-09-18T04:48:34;5.65;;;3.83;;
13981;SDS011;7065;50.880;5.502;2023-09-18T04:51:00;5.53;;;3.75;;
13981;SDS011;7065;50.880;5.502;2023-09-18T04:53:29;5.18;;;3.50;;
13981;SDS011;7065;50.880;5.502;2023-09-18T04:55:55;4.78;;;3.78;;
13981;SDS011;7065;50.880;5.502;2023-09-18T04:58:21;7.10;;;3.92;;
13981;SDS011;7065;50.880;5.502;2023-09-18T05:00:53;4.43;;;3.50;;
13981;SDS011;7065;50.880;5.502;2023-09-18T05:03:20;7.20;;;3.50;;
13981;SDS011;7065;50.880;5.502;2023-09-18T05:05:46;3.33;;;2.97;;
13981;SDS011;7065;50.880;5.502;2023-09-18T05:08:12;4.90;;;2.80;;
13981;SDS011;7065;50.880;5.502;2023-09-18T05:10:38;5.00;;;2.95;;
13981;SDS011;7065;50.880;5.502;2023-09-18T05:13:03;5.28;;;3.05;;
13981;SDS011;7065;50.880;5.502;2023-09-18T05:15:29;3.17;;;2.88;;
13981;SDS011;7065;50.880;5.502;2023-09-18T05:17:56;5.47;;;2.85;;
13981;SDS011;7065;50.880;5.502;2023-09-18T05:20:23;3.13;;;2.47;;
13981;SDS011;7065;50.880;5.502;2023-09-18T05:22:55;3.72;;;2.88;;
13981;SDS011;7065;50.880;5.502;2023-09-18T05:25:22;3.47;;;2.58;;
13981;SDS011;7065;50.880;5.502;2023-09-18T05:27:50;4.13;;;2.50;;
13981;SDS011;7065;50.880;5.502;2023-09-18T05:30:27;4.15;;;2.60;;
13981;SDS011;7065;50.880;5.502;2023-09-18T05:32:58;4.93;;;2.63;;
13981;SDS011;7065;50.880;5.502;2023-09-18T05:35:33;5.15;;;2.30;;
13981;SDS011;7065;50.880;5.502;2023-09-18T05:38:01;4.15;;;2.08;;
13981;SDS011;7065;50.880;5.502;2023-09-18T05:40:28;5.30;;;2.38;;
13981;SDS011;7065;50.880;5.502;2023-09-18T05:42:55;4.13;;;2.45;;
13981;SDS011;7065;50.880;5.502;2023-09-18T05:45:21;5.90;;;2.75;;
13981;SDS011;7065;50.880;5.502;2023-09-18T05:47:48;3.88;;;2.20;;
13981;SDS011;7065;50.880;5.502;2023-09-18T05:50:14;3.70;;;2.17;;
13981;SDS011;7065;50.880;5.502;2023-09-18T05:52:45;7.22;;;2.20;;
13981;SDS011;7065;50.880;5.502;2023-09-18T05:55:12;2.20;;;1.92;;
13981;SDS011;7065;50.880;5.502;2023-09-18T05:57:39;2.92;;;1.80;;
13981;SDS011;7065;50.880;5.502;2023-09-18T06:00:05;3.30;;;1.95;;
13981;SDS011;7065;50.880;5.502;2023-09-18T06:02:32;4.65;;;2.17;;
13981;SDS011;7065;50.880;5.502;2023-09-18T06:04:58;3.30;;;1.60;;
13981;SDS011;7065;50.880;5.502;2023-09-18T06:07:25;3.50;;;1.90;;
13981;SDS011;7065;50.880;5.502;2023-09-18T06:09:52;5.75;;;1.70;;
13981;SDS011;7065;50.880;5.502;2023-09-18T06:12:18;3.35;;;2.10;;
13981;SDS011;7065;50.880;5.502;2023-09-18T06:14:44;4.53;;;2.05;;
13981;SDS011;7065;50.880;5.502;2023-09-18T06:17:11;2.50;;;2.00;;
13981;SDS011;7065;50.880;5.502;2023-09-18T06:19:37;4.95;;;2.03;;
13981;SDS011;7065;50.880;5.502;2023-09-18T06:22:04;5.22;;;2.30;;
13981;SDS011;7065;50.880;5.502;2023-09-18T06:24:30;5.78;;;2.15;;
13981;SDS011;7065;50.880;5.502;2023-09-18T06:26:56;6.95;;;2.03;;
13981;SDS011;7065;50.880;5.502;2023-09-18T06:29:21;3.38;;;2.45;;
13981;SDS011;7065;50.880;5.502;2023-09-18T06:31:47;4.15;;;2.10;;
13981;SDS011;7065;50.880;5.502;2023-09-18T06:34:14;5.30;;;2.20;;
13981;SDS011;7065;50.880;5.502;2023-09-18T06:36:40;4.00;;;2.03;;
13981;SDS011;7065;50.880;5.502;2023-09-18T06:39:06;4.95;;;1.90;;
13981;SDS011;7065;50.880;5.502;2023-09-18T06:41:32;3.95;;;2.15;;
13981;SDS011;7065;50.880;5.502;2023-09-18T06:43:58;3.25;;;2.10;;
13981;SDS011;7065;50.880;5.502;2023-09-18T06:46:27;6.13;;;2.08;;
13981;SDS011;7065;50.880;5.502;2023-09-18T06:48:53;3.95;;;2.15;;
13981;SDS011;7065;50.880;5.502;2023-09-18T06:51:19;3.40;;;2.10;;
13981;SDS011;7065;50.880;5.502;2023-09-18T06:53:44;2.55;;;2.17;;
13981;SDS011;7065;50.880;5.502;2023-09-18T06:56:10;2.50;;;1.65;;
13981;SDS011;7065;50.880;5.502;2023-09-18T06:58:37;4.28;;;2.15;;
13981;SDS011;7065;50.880;5.502;2023-09-18T07:01:04;4.78;;;1.85;;
13981;SDS011;7065;50.880;5.502;2023-09-18T07:03:32;5.22;;;2.30;;
13981;SDS011;7065;50.880;5.502;2023-09-18T07:06:00;5.60;;;2.05;;
13981;SDS011;7065;50.880;5.502;2023-09-18T07:08:25;3.97;;;2.05;;
13981;SDS011;7065;50.880;5.502;2023-09-18T07:10:51;2.88;;;2.00;;
13981;SDS011;7065;50.880;5.502;2023-09-18T07:13:17;4.28;;;2.03;;
13981;SDS011;7065;50.880;5.502;2023-09-18T07:15:43;2.58;;;1.90;;
13981;SDS011;7065;50.880;5.502;2023-09-18T07:18:09;4.22;;;1.85;;
13981;SDS011;7065;50.880;5.502;2023-09-18T07:20:39;3.92;;;1.80;;
13981;SDS011;7065;50.880;5.502;2023-09-18T07:23:09;5.30;;;2.05;;
13981;SDS011;7065;50.880;5.502;2023-09-18T07:25:35;4.38;;;1.80;;
13981;SDS011;7065;50.880;5.502;2023-09-18T07:28:04;3.75;;;1.83;;
13981;SDS011;7065;50.880;5.502;2023-09-18T07:30:33;2.28;;;2.00;;
13981;SDS011;7065;50.880;5.502;2023-09-18T07:33:01;1.98;;;1.60;;
13981;SDS011;7065;50.880;5.502;2023-09-18T07:35:27;4.35;;;1.92;;
13981;SDS011;7065;50.880;5.502;2023-09-18T07:37:52;4.00;;;1.90;;
13981;SDS011;7065;50.880;5.502;2023-09-18T07:40:19;2.67;;;1.35;;
13981;SDS011;7065;50.880;5.502;2023-09-18T07:42:45;2.92;;;2.20;;
13981;SDS011;7065;50.880;5.502;2023-09-18T07:45:11;4.15;;;1.60;;
13981;SDS011;7065;50.880;5.502;2023-09-18T07:47:37;4.57;;;2.05;;
13981;SDS011;7065;50.880;5.502;2023-09-18T07:50:03;4.53;;;2.10;;
13981;SDS011;7065;50.880;5.502;2023-09-18T07:52:30;2.03;;;1.70;;
13981;SDS011;7065;50.880;5.502;2023-09-18T07:54:56;1.73;;;1.63;;
13981;SDS011;7065;50.880;5.502;2023-09-18T07:57:25;2.28;;;1.73;;
13981;SDS011;7065;50.880;5.502;2023-09-18T07:59:55;1.88;;;1.58;;
13981;SDS011;7065;50.880;5.502;2023-09-18T08:02:20;4.03;;;1.80;;
13981;SDS011;7065;50.880;5.502;2023-09-18T08:04:47;4.93;;;2.25;;
13981;SDS011;7065;50.880;5.502;2023-09-18T08:07:13;4.13;;;2.08;;
13981;SDS011;7065;50.880;5.502;2023-09-18T08:09:39;4.50;;;2.05;;
13981;SDS011;7065;50.880;5.502;2023-09-18T08:12:05;4.18;;;1.90;;
13981;SDS011;7065;50.880;5.502;2023-09-18T08:14:31;3.45;;;1.90;;
13981;SDS011;7065;50.880;5.502;2023-09-18T08:17:00;2.85;;;1.95;;
13981;SDS011;7065;50.880;5.502;2023-09-18T08:19:26;2.33;;;1.85;;
13981;SDS011;7065;50.880;5.502;2023-09-18T08:21:56;3.22;;;1.90;;
13981;SDS011;7065;50.880;5.502;2023-09-18T08:24:22;2.63;;;1.55;;
13981;SDS011;7065;50.880;5.502;2023-09-18T08:26:48;4.65;;;2.05;;
13981;SDS011;7065;50.880;5.502;2023-09-18T08:29:14;3.17;;;2.00;;
13981;SDS011;7065;50.880;5.502;2023-09-18T08:31:40;4.15;;;1.73;;
13981;SDS011;7065;50.880;5.502;2023-09-18T08:34:06;6.05;;;2.00;;
13981;SDS011;7065;50.880;5.502;2023-09-18T08:36:32;3.70;;;1.95;;
13981;SDS011;7065;50.880;5.502;2023-09-18T08:38:58;5.68;;;2.17;;
13981;SDS011;7065;50.880;5.502;2023-09-18T08:41:24;2.25;;;2.00;;
13981;SDS011;7065;50.880;5.502;2023-09-18T08:43:56;3.13;;;1.85;;
13981;SDS011;7065;50.880;5.502;2023-09-18T08:46:25;3.13;;;2.00;;
13981;SDS011;7065;50.880;5.502;2023-09-18T08:48:51;3.05;;;2.40;;
13981;SDS011;7065;50.880;5.502;2023-09-18T08:51:19;2.85;;;1.77;;
13981;SDS011;7065;50.880;5.502;2023-09-18T08:53:46;4.43;;;2.13;;
13981;SDS011;7065;50.880;5.502;2023-09-18T08:56:12;3.88;;;2.42;;
13981;SDS011;7065;50.880;5.502;2023-09-18T08:58:38;3.58;;;2.00;;
13981;SDS011;7065;50.880;5.502;2023-09-18T09:01:08;6.20;;;2.60;;
13981;SDS011;7065;50.880;5.502;2023-09-18T09:03:36;4.13;;;2.05;;
13981;SDS011;7065;50.880;5.502;2023-09-18T09:06:03;4.18;;;1.92;;
13981;SDS011;7065;50.880;5.502;2023-09-18T09:08:29;4.13;;;2.05;;
13981;SDS011;7065;50.880;5.502;2023-09-18T09:10:55;5.50;;;2.70;;
13981;SDS011;7065;50.880;5.502;2023-09-18T09:13:23;2.83;;;2.03;;
13981;SDS011;7065;50.880;5.502;2023-09-18T09:15:52;3.08;;;2.00;;
13981;SDS011;7065;50.880;5.502;2023-09-18T09:18:21;2.63;;;1.80;;
13981;SDS011;7065;50.880;5.502;2023-09-18T09:20:52;4.50;;;2.28;;
13981;SDS011;7065;50.880;5.502;2023-09-18T09:23:19;3.88;;;2.03;;
13981;SDS011;7065;50.880;5.502;2023-09-18T09:25:45;4.55;;;2.35;;
13981;SDS011;7065;50.880;5.502;2023-09-18T09:28:10;5.53;;;2.70;;
13981;SDS011;7065;50.880;5.502;2023-09-18T09:30:37;4.35;;;2.67;;
13981;SDS011;7065;50.880;5.502;2023-09-18T09:33:03;6.55;;;2.22;;
13981;SDS011;7065;50.880;5.502;2023-09-18T09:35:30;4.47;;;2.72;;
13981;SDS011;7065;50.880;5.502;2023-09-18T09:38:06;5.35;;;2.92;;
13981;SDS011;7065;50.880;5.502;2023-09-18T09:40:34;4.10;;;2.40;;
13981;SDS011;7065;50.880;5.502;2023-09-18T09:43:00;6.40;;;2.40;;
13981;SDS011;7065;50.880;5.502;2023-09-18T09:45:28;6.35;;;2.70;;
13981;SDS011;7065;50.880;5.502;2023-09-18T09:47:55;4.57;;;2.45;;
13981;SDS011;7065;50.880;5.502;2023-09-18T09:50:22;5.00;;;3.03;;
13981;SDS011;7065;50.880;5.502;2023-09-18T09:52:50;4.53;;;2.90;;
13981;SDS011;7065;50.880;5.502;2023-09-18T09:55:25;3.13;;;2.55;;
13981;SDS011;7065;50.880;5.502;2023-09-18T09:57:55;3.20;;;2.25;;
13981;SDS011;7065;50.880;5.502;2023-09-18T10:00:25;3.13;;;2.30;;
13981;SDS011;7065;50.880;5.502;2023-09-18T10:03:08;2.90;;;2.28;;
13981;SDS011;7065;50.880;5.502;2023-09-18T10:05:36;6.22;;;2.30;;
13981;SDS011;7065;50.880;5.502;2023-09-18T10:08:17;3.95;;;2.20;;
13981;SDS011;7065;50.880;5.502;2023-09-18T10:13:20;4.07;;;2.22;;
13981;SDS011;7065;50.880;5.502;2023-09-18T10:15:52;4.47;;;2.50;;
13981;SDS011;7065;50.880;5.502;2023-09-18T10:18:28;4.47;;;2.30;;
13981;SDS011;7065;50.880;5.502;2023-09-18T10:21:53;4.40;;;2.10;;
13981;SDS011;7065;50.880;5.502;2023-09-18T10:26:39;4.20;;;2.08;;
13981;SDS011;7065;50.880;5.502;2023-09-18T10:29:12;4.13;;;2.30;;
13981;SDS011;7065;50.880;5.502;2023-09-18T10:31:39;3.33;;;2.22;;
13981;SDS011;7065;50.880;5.502;2023-09-18T10:34:06;4.55;;;2.20;;
13981;SDS011;7065;50.880;5.502;2023-09-18T10:36:32;4.35;;;2.35;;
13981;SDS011;7065;50.880;5.502;2023-09-18T10:38:59;3.25;;;2.15;;
13981;SDS011;7065;50.880;5.502;2023-09-18T10:41:26;3.90;;;1.90;;
13981;SDS011;7065;50.880;5.502;2023-09-18T10:43:53;5.35;;;2.00;;
13981;SDS011;7065;50.880;5.502;2023-09-18T10:46:22;3.90;;;2.17;;
13981;SDS011;7065;50.880;5.502;2023-09-18T10:48:50;4.30;;;2.10;;
13981;SDS011;7065;50.880;5.502;2023-09-18T10:51:19;2.67;;;2.10;;
13981;SDS011;7065;50.880;5.502;2023-09-18T10:53:48;7.13;;;2.40;;
13981;SDS011;7065;50.880;5.502;2023-09-18T10:56:15;2.92;;;2.35;;
13981;SDS011;7065;50.880;5.502;2023-09-18T10:58:43;3.65;;;2.40;;
13981;SDS011;7065;50.880;5.502;2023-09-18T11:01:13;3.60;;;2.53;;
13981;SDS011;7065;50.880;5.502;2023-09-18T11:03:39;6.03;;;2.63;;
13981;SDS011;7065;50.880;5.502;2023-09-18T11:06:10;4.93;;;2.30;;
13981;SDS011;7065;50.880;5.502;2023-09-18T11:08:51;4.60;;;2.28;;
13981;SDS011;7065;50.880;5.502;2023-09-18T11:11:26;3.50;;;1.88;;
13981;SDS011;7065;50.880;5.502;2023-09-18T11:13:55;4.32;;;2.20;;
13981;SDS011;7065;50.880;5.502;2023-09-18T11:19:16;5.30;;;2.60;;
13981;SDS011;7065;50.880;5.502;2023-09-18T11:21:42;3.97;;;1.90;;
13981;SDS011;7065;50.880;5.502;2023-09-18T11:24:20;3.83;;;2.10;;
13981;SDS011;7065;50.880;5.502;2023-09-18T11:26:48;5.22;;;2.47;;
13981;SDS011;7065;50.880;5.502;2023-09-18T11:29:17;2.95;;;1.95;;
13981;SDS011;7065;50.880;5.502;2023-09-18T11:31:55;5.07;;;2.22;;
13981;SDS011;7065;50.880;5.502;2023-09-18T11:34:28;3.92;;;2.15;;
13981;SDS011;7065;50.880;5.502;2023-09-18T11:37:01;4.65;;;2.25;;
13981;SDS011;7065;50.880;5.502;2023-09-18T11:39:44;4.10;;;2.38;;
13981;SDS011;7065;50.880;5.502;2023-09-18T11:42:16;3.00;;;2.08;;
13981;SDS011;7065;50.880;5.502;2023-09-18T11:44:44;3.50;;;1.88;;
13981;SDS011;7065;50.880;5.502;2023-09-18T11:47:14;4.00;;;1.88;;
13981;SDS011;7065;50.880;5.502;2023-09-18T11:49:54;2.40;;;2.05;;
13981;SDS011;7065;50.880;5.502;2023-09-18T11:52:23;2.15;;;1.80;;
13981;SDS011;7065;50.880;5.502;2023-09-18T11:54:55;2.33;;;2.13;;
13981;SDS011;7065;50.880;5.502;2023-09-18T11:57:22;3.30;;;2.30;;
13981;SDS011;7065;50.880;5.502;2023-09-18T11:59:48;2.75;;;2.00;;
13981;SDS011;7065;50.880;5.502;2023-09-18T12:05:14;3.17;;;1.85;;
13981;SDS011;7065;50.880;5.502;2023-09-18T12:07:42;4.05;;;1.85;;
13981;SDS011;7065;50.880;5.502;2023-09-18T12:10:09;3.35;;;1.80;;
13981;SDS011;7065;50.880;5.502;2023-09-18T12:12:36;4.75;;;2.10;;
13981;SDS011;7065;50.880;5.502;2023-09-18T12:15:03;5.43;;;2.13;;
13981;SDS011;7065;50.880;5.502;2023-09-18T12:17:29;3.42;;;1.90;;
13981;SDS011;7065;50.880;5.502;2023-09-18T12:19:54;2.75;;;2.00;;
13981;SDS011;7065;50.880;5.502;2023-09-18T12:22:24;2.40;;;1.60;;
13981;SDS011;7065;50.880;5.502;2023-09-18T12:24:51;2.85;;;1.75;;
13981;SDS011;7065;50.880;5.502;2023-09-18T12:27:17;4.22;;;2.15;;
13981;SDS011;7065;50.880;5.502;2023-09-18T12:29:43;3.72;;;2.30;;
13981;SDS011;7065;50.880;5.502;2023-09-18T12:32:09;4.13;;;2.05;;
13981;SDS011;7065;50.880;5.502;2023-09-18T12:34:40;2.83;;;1.70;;
13981;SDS011;7065;50.880;5.502;2023-09-18T12:37:06;2.25;;;1.63;;
13981;SDS011;7065;50.880;5.502;2023-09-18T12:39:37;2.25;;;1.75;;
13981;SDS011;7065;50.880;5.502;2023-09-18T12:42:03;3.88;;;1.92;;
13981;SDS011;7065;50.880;5.502;2023-09-18T12:44:31;3.25;;;1.85;;
13981;SDS011;7065;50.880;5.502;2023-09-18T12:46:57;1.75;;;1.65;;
13981;SDS011;7065;50.880;5.502;2023-09-18T12:49:23;3.45;;;2.00;;
13981;SDS011;7065;50.880;5.502;2023-09-18T12:51:57;3.00;;;1.98;;
13981;SDS011;7065;50.880;5.502;2023-09-18T12:57:05;2.80;;;1.75;;
13981;SDS011;7065;50.880;5.502;2023-09-18T12:59:33;2.90;;;1.85;;
13981;SDS011;7065;50.880;5.502;2023-09-18T13:02:01;3.47;;;1.75;;
13981;SDS011;7065;50.880;5.502;2023-09-18T13:04:31;2.47;;;1.70;;
13981;SDS011;7065;50.880;5.502;2023-09-18T13:07:06;4.63;;;1.88;;
13981;SDS011;7065;50.880;5.502;2023-09-18T13:09:34;2.88;;;1.45;;
13981;SDS011;7065;50.880;5.502;2023-09-18T13:12:00;3.53;;;1.88;;
13981;SDS011;7065;50.880;5.502;2023-09-18T13:14:26;3.88;;;1.73;;
13981;SDS011;7065;50.880;5.502;2023-09-18T13:16:52;2.00;;;1.83;;
13981;SDS011;7065;50.880;5.502;2023-09-18T13:19:18;3.75;;;1.63;;
13981;SDS011;7065;50.880;5.502;2023-09-18T13:21:48;2.10;;;1.80;;
13981;SDS011;7065;50.880;5.502;2023-09-18T13:24:30;2.83;;;1.90;;
13981;SDS011;7065;50.880;5.502;2023-09-18T13:26:56;5.03;;;1.90;;
13981;SDS011;7065;50.880;5.502;2023-09-18T13:29:24;2.42;;;1.77;;
13981;SDS011;7065;50.880;5.502;2023-09-18T13:31:50;3.33;;;1.58;;
13981;SDS011;7065;50.880;5.502;2023-09-18T13:34:16;3.95;;;1.77;;
13981;SDS011;7065;50.880;5.502;2023-09-18T13:36:43;2.80;;;1.70;;
13981;SDS011;7065;50.880;5.502;2023-09-18T13:39:10;2.80;;;1.70;;
13981;SDS011;7065;50.880;5.502;2023-09-18T13:41:37;1.50;;;1.40;;
13981;SDS011;7065;50.880;5.502;2023-09-18T13:44:04;1.55;;;1.33;;
13981;SDS011;7065;50.880;5.502;2023-09-18T13:46:30;2.70;;;1.65;;
13981;SDS011;7065;50.880;5.502;2023-09-18T13:48:56;2.42;;;2.00;;
13981;SDS011;7065;50.880;5.502;2023-09-18T13:51:22;2.45;;;1.70;;
13981;SDS011;7065;50.880;5.502;2023-09-18T13:53:48;1.75;;;1.63;;
13981;SDS011;7065;50.880;5.502;2023-09-18T13:56:14;3.42;;;1.45;;
13981;SDS011;7065;50.880;5.502;2023-09-18T13:58:39;2.38;;;1.55;;
13981;SDS011;7065;50.880;5.502;2023-09-18T14:01:06;5.32;;;1.60;;
13981;SDS011;7065;50.880;5.502;2023-09-18T14:03:33;3.58;;;1.50;;
13981;SDS011;7065;50.880;5.502;2023-09-18T14:05:59;7.13;;;2.00;;
13981;SDS011;7065;50.880;5.502;2023-09-18T14:08:25;2.90;;;1.83;;
13981;SDS011;7065;50.880;5.502;2023-09-18T14:10:51;1.50;;;1.40;;
13981;SDS011;7065;50.880;5.502;2023-09-18T14:13:16;2.72;;;1.50;;
13981;SDS011;7065;50.880;5.502;2023-09-18T14:15:42;3.95;;;1.70;;
13981;SDS011;7065;50.880;5.502;2023-09-18T14:18:08;4.70;;;1.73;;
13981;SDS011;7065;50.880;5.502;2023-09-18T14:20:35;2.17;;;1.83;;
13981;SDS011;7065;50.880;5.502;2023-09-18T14:23:01;1.65;;;1.45;;
13981;SDS011;7065;50.880;5.502;2023-09-18T14:25:28;3.47;;;1.77;;
13981;SDS011;7065;50.880;5.502;2023-09-18T14:27:54;2.40;;;1.70;;
13981;SDS011;7065;50.880;5.502;2023-09-18T14:30:19;2.47;;;1.70;;
13981;SDS011;7065;50.880;5.502;2023-09-18T14:32:45;2.13;;;1.50;;
13981;SDS011;7065;50.880;5.502;2023-09-18T14:35:11;2.25;;;1.50;;
13981;SDS011;7065;50.880;5.502;2023-09-18T14:37:38;1.70;;;1.50;;
13981;SDS011;7065;50.880;5.502;2023-09-18T14:40:04;2.55;;;1.48;;
13981;SDS011;7065;50.880;5.502;2023-09-18T14:42:35;2.42;;;1.40;;
13981;SDS011;7065;50.880;5.502;2023-09-18T14:45:01;3.83;;;1.70;;
13981;SDS011;7065;50.880;5.502;2023-09-18T14:47:26;3.75;;;1.50;;
13981;SDS011;7065;50.880;5.502;2023-09-18T14:49:52;4.65;;;1.70;;
13981;SDS011;7065;50.880;5.502;2023-09-18T14:52:18;3.90;;;1.40;;
13981;SDS011;7065;50.880;5.502;2023-09-18T14:54:46;2.75;;;1.42;;
13981;SDS011;7065;50.880;5.502;2023-09-18T14:57:11;3.30;;;1.45;;
13981;SDS011;7065;50.880;5.502;2023-09-18T14:59:37;2.28;;;1.80;;
13981;SDS011;7065;50.880;5.502;2023-09-18T15:02:04;3.03;;;1.65;;
13981;SDS011;7065;50.880;5.502;2023-09-18T15:04:29;3.80;;;2.08;;
13981;SDS011;7065;50.880;5.502;2023-09-18T15:06:57;2.75;;;1.63;;
13981;SDS011;7065;50.880;5.502;2023-09-18T15:09:23;4.95;;;2.10;;
13981;SDS011;7065;50.880;5.502;2023-09-18T15:11:48;2.63;;;1.70;;
13981;SDS011;7065;50.880;5.502;2023-09-18T15:14:14;4.00;;;1.60;;
13981;SDS011;7065;50.880;5.502;2023-09-18T15:16:40;2.88;;;1.80;;